sensor_id;sensor_type;location;lat;lon;timestamp;P1;durP1;ratioP1;P2;durP2;ratioP2
56720;SDS011;53183;47.412;18.884;2022-11-21T00:01:22;26.80;;;10.15;;
56720;SDS011;53183;47.412;18.884;2022-11-21T00:03:55;21.80;;;11.10;;
56720;SDS011;53183;47.412;18.884;2022-11-21T00:06:22;25.30;;;11.43;;
56720;SDS011;53183;47.412;18.884;2022-11-21T00:08:49;28.75;;;13.20;;
56720;SDS011;53183;47.412;18.884;2022-11-21T00:11:17;30.37;;;14.20;;
56720;SDS011;53183;47.412;18.884;2022-11-21T00:13:44;25.08;;;12.50;;
56720;SDS011;53183;47.412;18.884;2022-11-21T00:16:12;27.15;;;11.35;;
56720;SDS011;53183;47.412;18.884;2022-11-21T00:18:41;27.42;;;12.70;;
56720;SDS011;53183;47.412;18.884;2022-11-21T00:21:13;23.33;;;10.70;;
56720;SDS011;53183;47.412;18.884;2022-11-21T00:23:43;22.40;;;10.67;;
56720;SDS011;53183;47.412;18.884;2022-11-21T00:26:11;23.70;;;10.55;;
56720;SDS011;53183;47.412;18.884;2022-11-21T00:28:40;25.48;;;11.20;;
56720;SDS011;53183;47.412;18.884;2022-11-21T00:31:08;21.45;;;9.27;;
56720;SDS011;53183;47.412;18.884;2022-11-21T00:33:43;21.87;;;10.57;;
56720;SDS011;53183;47.412;18.884;2022-11-21T00:36:10;28.95;;;12.10;;
56720;SDS011;53183;47.412;18.884;2022-11-21T00:38:37;22.23;;;10.35;;
56720;SDS011;53183;47.412;18.884;2022-11-21T00:41:04;19.65;;;9.70;;
56720;SDS011;53183;47.412;18.884;2022-11-21T00:43:32;20.48;;;10.70;;
56720;SDS011;53183;47.412;18.884;2022-11-21T00:45:59;21.92;;;9.10;;
56720;SDS011;53183;47.412;18.884;2022-11-21T00:48:29;17.48;;;8.82;;
56720;SDS011;53183;47.412;18.884;2022-11-21T00:50:57;18.58;;;8.45;;
56720;SDS011;53183;47.412;18.884;2022-11-21T00:53:26;18.87;;;9.02;;
56720;SDS011;53183;47.412;18.884;2022-11-21T00:55:54;18.80;;;9.77;;
56720;SDS011;53183;47.412;18.884;2022-11-21T00:58:21;21.98;;;10.80;;
56720;SDS011;53183;47.412;18.884;2022-11-21T01:00:49;19.90;;;8.80;;
56720;SDS011;53183;47.412;18.884;2022-11-21T01:03:16;20.67;;;10.10;;
56720;SDS011;53183;47.412;18.884;2022-11-21T01:05:43;18.83;;;9.27;;
56720;SDS011;53183;47.412;18.884;2022-11-21T01:08:10;21.20;;;9.98;;
56720;SDS011;53183;47.412;18.884;2022-11-21T01:10:37;22.55;;;8.82;;
56720;SDS011;53183;47.412;18.884;2022-11-21T01:13:04;18.02;;;8.40;;
56720;SDS011;53183;47.412;18.884;2022-11-21T01:15:32;21.35;;;9.20;;
56720;SDS011;53183;47.412;18.884;2022-11-21T01:18:00;20.30;;;8.85;;
56720;SDS011;53183;47.412;18.884;2022-11-21T01:20:27;16.95;;;7.50;;
56720;SDS011;53183;47.412;18.884;2022-11-21T01:22:54;18.75;;;8.10;;
56720;SDS011;53183;47.412;18.884;2022-11-21T01:25:21;19.55;;;7.87;;
56720;SDS011;53183;47.412;18.884;2022-11-21T01:27:48;18.85;;;9.35;;
56720;SDS011;53183;47.412;18.884;2022-11-21T01:30:15;19.17;;;8.13;;
56720;SDS011;53183;47.412;18.884;2022-11-21T01:32:46;18.00;;;9.65;;
56720;SDS011;53183;47.412;18.884;2022-11-21T01:35:14;21.10;;;9.15;;
56720;SDS011;53183;47.412;18.884;2022-11-21T01:37:41;22.23;;;9.57;;
56720;SDS011;53183;47.412;18.884;2022-11-21T01:40:08;20.30;;;9.30;;
56720;SDS011;53183;47.412;18.884;2022-11-21T01:43:10;27.20;;;10.32;;
56720;SDS011;53183;47.412;18.884;2022-11-21T01:48:47;21.27;;;9.90;;
56720;SDS011;53183;47.412;18.884;2022-11-21T01:51:19;22.42;;;10.30;;
56720;SDS011;53183;47.412;18.884;2022-11-21T01:54:12;32.00;;;12.05;;
56720;SDS011;53183;47.412;18.884;2022-11-21T01:56:45;24.92;;;12.02;;
56720;SDS011;53183;47.412;18.884;2022-11-21T01:59:31;26.70;;;11.88;;
56720;SDS011;53183;47.412;18.884;2022-11-21T02:02:01;26.85;;;11.85;;
56720;SDS011;53183;47.412;18.884;2022-11-21T02:04:32;28.55;;;12.30;;
56720;SDS011;53183;47.412;18.884;2022-11-21T02:07:01;26.52;;;10.85;;
56720;SDS011;53183;47.412;18.884;2022-11-21T02:09:30;29.77;;;12.00;;
56720;SDS011;53183;47.412;18.884;2022-11-21T02:12:13;27.45;;;11.07;;
56720;SDS011;53183;47.412;18.884;2022-11-21T02:14:46;21.52;;;10.82;;
56720;SDS011;53183;47.412;18.884;2022-11-21T02:17:16;20.95;;;9.98;;
56720;SDS011;53183;47.412;18.884;2022-11-21T02:19:54;24.15;;;10.73;;
56720;SDS011;53183;47.412;18.884;2022-11-21T02:27:32;21.90;;;10.55;;
56720;SDS011;53183;47.412;18.884;2022-11-21T02:30:03;21.37;;;10.52;;
56720;SDS011;53183;47.412;18.884;2022-11-21T02:32:34;23.98;;;10.63;;
56720;SDS011;53183;47.412;18.884;2022-11-21T02:35:03;28.25;;;11.15;;
56720;SDS011;53183;47.412;18.884;2022-11-21T02:37:31;26.08;;;11.15;;
56720;SDS011;53183;47.412;18.884;2022-11-21T02:40:02;25.48;;;11.40;;
56720;SDS011;53183;47.412;18.884;2022-11-21T02:42:40;27.55;;;11.88;;
56720;SDS011;53183;47.412;18.884;2022-11-21T02:45:22;29.25;;;13.25;;
56720;SDS011;53183;47.412;18.884;2022-11-21T02:47:55;29.95;;;13.62;;
56720;SDS011;53183;47.412;18.884;2022-11-21T02:50:36;26.58;;;12.52;;
56720;SDS011;53183;47.412;18.884;2022-11-21T02:53:09;26.90;;;11.65;;
56720;SDS011;53183;47.412;18.884;2022-11-21T02:55:38;33.78;;;13.02;;
56720;SDS011;53183;47.412;18.884;2022-11-21T02:58:05;29.92;;;12.85;;
56720;SDS011;53183;47.412;18.884;2022-11-21T03:00:33;32.95;;;12.80;;
56720;SDS011;53183;47.412;18.884;2022-11-21T03:03:01;24.48;;;12.32;;
56720;SDS011;53183;47.412;18.884;2022-11-21T03:05:28;26.05;;;11.65;;
56720;SDS011;53183;47.412;18.884;2022-11-21T03:07:56;22.13;;;11.10;;
56720;SDS011;53183;47.412;18.884;2022-11-21T03:10:24;23.95;;;11.75;;
56720;SDS011;53183;47.412;18.884;2022-11-21T03:12:51;26.25;;;12.05;;
56720;SDS011;53183;47.412;18.884;2022-11-21T03:15:28;26.35;;;10.52;;
56720;SDS011;53183;47.412;18.884;2022-11-21T03:17:56;24.87;;;9.52;;
56720;SDS011;53183;47.412;18.884;2022-11-21T03:20:23;24.15;;;9.90;;
56720;SDS011;53183;47.412;18.884;2022-11-21T03:22:51;26.42;;;10.25;;
56720;SDS011;53183;47.412;18.884;2022-11-21T03:25:19;21.45;;;9.02;;
56720;SDS011;53183;47.412;18.884;2022-11-21T03:27:49;23.20;;;9.70;;
56720;SDS011;53183;47.412;18.884;2022-11-21T03:30:21;22.62;;;8.57;;
56720;SDS011;53183;47.412;18.884;2022-11-21T03:32:49;27.00;;;10.38;;
56720;SDS011;53183;47.412;18.884;2022-11-21T03:35:16;27.60;;;10.32;;
56720;SDS011;53183;47.412;18.884;2022-11-21T03:37:44;23.33;;;9.52;;
56720;SDS011;53183;47.412;18.884;2022-11-21T03:40:14;22.48;;;10.38;;
56720;SDS011;53183;47.412;18.884;2022-11-21T03:42:41;20.62;;;9.43;;
56720;SDS011;53183;47.412;18.884;2022-11-21T03:45:08;27.83;;;10.88;;
56720;SDS011;53183;47.412;18.884;2022-11-21T03:47:35;20.60;;;9.73;;
56720;SDS011;53183;47.412;18.884;2022-11-21T03:50:02;24.87;;;10.93;;
56720;SDS011;53183;47.412;18.884;2022-11-21T03:52:30;23.35;;;11.38;;
56720;SDS011;53183;47.412;18.884;2022-11-21T03:54:57;27.75;;;12.45;;
56720;SDS011;53183;47.412;18.884;2022-11-21T03:57:24;30.23;;;12.20;;
56720;SDS011;53183;47.412;18.884;2022-11-21T03:59:51;28.20;;;12.05;;
56720;SDS011;53183;47.412;18.884;2022-11-21T04:02:18;20.83;;;9.93;;
56720;SDS011;53183;47.412;18.884;2022-11-21T04:04:46;27.13;;;11.90;;
56720;SDS011;53183;47.412;18.884;2022-11-21T04:07:13;31.83;;;13.23;;
56720;SDS011;53183;47.412;18.884;2022-11-21T04:09:40;32.38;;;12.65;;
56720;SDS011;53183;47.412;18.884;2022-11-21T04:12:07;24.10;;;11.75;;
56720;SDS011;53183;47.412;18.884;2022-11-21T04:14:34;32.65;;;12.60;;
56720;SDS011;53183;47.412;18.884;2022-11-21T04:17:01;29.77;;;11.32;;
56720;SDS011;53183;47.412;18.884;2022-11-21T04:19:28;27.70;;;12.15;;
56720;SDS011;53183;47.412;18.884;2022-11-21T04:21:55;26.05;;;11.43;;
56720;SDS011;53183;47.412;18.884;2022-11-21T04:24:22;33.63;;;14.27;;
56720;SDS011;53183;47.412;18.884;2022-11-21T04:26:50;25.17;;;12.27;;
56720;SDS011;53183;47.412;18.884;2022-11-21T04:29:17;31.30;;;12.90;;
56720;SDS011;53183;47.412;18.884;2022-11-21T04:31:44;30.25;;;11.95;;
56720;SDS011;53183;47.412;18.884;2022-11-21T04:34:11;26.87;;;11.70;;
56720;SDS011;53183;47.412;18.884;2022-11-21T04:36:38;25.92;;;11.57;;
56720;SDS011;53183;47.412;18.884;2022-11-21T04:39:05;27.60;;;11.68;;
56720;SDS011;53183;47.412;18.884;2022-11-21T04:41:32;35.92;;;14.00;;
56720;SDS011;53183;47.412;18.884;2022-11-21T04:43:59;29.17;;;12.55;;
56720;SDS011;53183;47.412;18.884;2022-11-21T04:46:26;28.48;;;12.25;;
56720;SDS011;53183;47.412;18.884;2022-11-21T04:48:55;27.73;;;13.40;;
56720;SDS011;53183;47.412;18.884;2022-11-21T04:51:22;29.23;;;12.52;;
56720;SDS011;53183;47.412;18.884;2022-11-21T04:53:49;31.15;;;12.35;;
56720;SDS011;53183;47.412;18.884;2022-11-21T04:56:16;26.12;;;11.43;;
56720;SDS011;53183;47.412;18.884;2022-11-21T04:58:43;27.25;;;12.80;;
56720;SDS011;53183;47.412;18.884;2022-11-21T05:01:10;28.38;;;13.60;;
56720;SDS011;53183;47.412;18.884;2022-11-21T05:03:38;34.05;;;13.98;;
56720;SDS011;53183;47.412;18.884;2022-11-21T05:06:05;27.70;;;12.90;;
56720;SDS011;53183;47.412;18.884;2022-11-21T05:08:32;30.20;;;13.07;;
56720;SDS011;53183;47.412;18.884;2022-11-21T05:10:59;24.12;;;12.20;;
56720;SDS011;53183;47.412;18.884;2022-11-21T05:13:45;31.67;;;13.60;;
56720;SDS011;53183;47.412;18.884;2022-11-21T05:16:13;37.88;;;13.45;;
56720;SDS011;53183;47.412;18.884;2022-11-21T05:18:40;31.48;;;13.55;;
56720;SDS011;53183;47.412;18.884;2022-11-21T05:21:07;29.48;;;13.88;;
56720;SDS011;53183;47.412;18.884;2022-11-21T05:23:34;35.75;;;13.32;;
56720;SDS011;53183;47.412;18.884;2022-11-21T05:26:01;33.30;;;13.65;;
56720;SDS011;53183;47.412;18.884;2022-11-21T05:28:28;28.95;;;13.30;;
56720;SDS011;53183;47.412;18.884;2022-11-21T05:30:55;39.38;;;14.80;;
56720;SDS011;53183;47.412;18.884;2022-11-21T05:33:22;30.75;;;14.68;;
56720;SDS011;53183;47.412;18.884;2022-11-21T05:35:49;33.13;;;14.85;;
56720;SDS011;53183;47.412;18.884;2022-11-21T05:38:17;28.12;;;13.18;;
56720;SDS011;53183;47.412;18.884;2022-11-21T05:40:44;30.80;;;14.87;;
56720;SDS011;53183;47.412;18.884;2022-11-21T05:43:11;30.83;;;14.48;;
56720;SDS011;53183;47.412;18.884;2022-11-21T05:45:57;34.67;;;15.98;;
56720;SDS011;53183;47.412;18.884;2022-11-21T05:48:24;40.90;;;19.08;;
56720;SDS011;53183;47.412;18.884;2022-11-21T05:50:51;40.95;;;18.95;;
56720;SDS011;53183;47.412;18.884;2022-11-21T05:53:19;38.88;;;19.45;;
56720;SDS011;53183;47.412;18.884;2022-11-21T05:55:46;47.13;;;19.40;;
56720;SDS011;53183;47.412;18.884;2022-11-21T05:58:13;43.75;;;18.30;;
56720;SDS011;53183;47.412;18.884;2022-11-21T06:00:40;50.53;;;21.87;;
56720;SDS011;53183;47.412;18.884;2022-11-21T06:03:09;57.53;;;22.00;;
56720;SDS011;53183;47.412;18.884;2022-11-21T06:08:38;54.38;;;22.60;;
56720;SDS011;53183;47.412;18.884;2022-11-21T06:11:10;76.37;;;26.75;;
56720;SDS011;53183;47.412;18.884;2022-11-21T06:13:44;104.15;;;27.92;;
56720;SDS011;53183;47.412;18.884;2022-11-21T06:16:12;66.00;;;25.50;;
56720;SDS011;53183;47.412;18.884;2022-11-21T06:18:46;91.32;;;26.70;;
56720;SDS011;53183;47.412;18.884;2022-11-21T06:21:22;73.45;;;25.12;;
56720;SDS011;53183;47.412;18.884;2022-11-21T06:23:52;67.28;;;25.05;;
56720;SDS011;53183;47.412;18.884;2022-11-21T06:26:22;132.48;;;27.00;;
56720;SDS011;53183;47.412;18.884;2022-11-21T06:28:51;97.80;;;23.92;;
56720;SDS011;53183;47.412;18.884;2022-11-21T06:31:19;71.18;;;24.63;;
56720;SDS011;53183;47.412;18.884;2022-11-21T06:33:52;52.42;;;20.73;;
56720;SDS011;53183;47.412;18.884;2022-11-21T06:36:21;67.57;;;22.75;;
56720;SDS011;53183;47.412;18.884;2022-11-21T06:38:49;59.67;;;23.87;;
56720;SDS011;53183;47.412;18.884;2022-11-21T06:41:20;66.60;;;26.67;;
56720;SDS011;53183;47.412;18.884;2022-11-21T06:43:48;60.40;;;24.30;;
56720;SDS011;53183;47.412;18.884;2022-11-21T06:46:15;55.40;;;23.90;;
56720;SDS011;53183;47.412;18.884;2022-11-21T06:48:42;57.15;;;22.98;;
56720;SDS011;53183;47.412;18.884;2022-11-21T06:51:17;56.00;;;23.42;;
56720;SDS011;53183;47.412;18.884;2022-11-21T06:53:47;54.05;;;23.02;;
56720;SDS011;53183;47.412;18.884;2022-11-21T06:56:22;49.85;;;21.30;;
56720;SDS011;53183;47.412;18.884;2022-11-21T06:58:50;66.97;;;25.58;;
56720;SDS011;53183;47.412;18.884;2022-11-21T07:01:18;59.10;;;26.80;;
56720;SDS011;53183;47.412;18.884;2022-11-21T07:03:46;64.65;;;28.38;;
56720;SDS011;53183;47.412;18.884;2022-11-21T07:06:13;68.93;;;26.15;;
56720;SDS011;53183;47.412;18.884;2022-11-21T07:08:40;60.75;;;26.62;;
56720;SDS011;53183;47.412;18.884;2022-11-21T07:11:11;57.28;;;25.10;;
56720;SDS011;53183;47.412;18.884;2022-11-21T07:13:54;49.40;;;21.23;;
56720;SDS011;53183;47.412;18.884;2022-11-21T07:16:22;44.88;;;19.23;;
56720;SDS011;53183;47.412;18.884;2022-11-21T07:18:52;60.20;;;26.95;;
56720;SDS011;53183;47.412;18.884;2022-11-21T07:21:19;54.00;;;27.73;;
56720;SDS011;53183;47.412;18.884;2022-11-21T07:23:46;64.18;;;26.42;;
56720;SDS011;53183;47.412;18.884;2022-11-21T07:26:14;51.72;;;25.75;;
56720;SDS011;53183;47.412;18.884;2022-11-21T07:28:41;47.58;;;23.90;;
56720;SDS011;53183;47.412;18.884;2022-11-21T07:31:09;44.13;;;20.33;;
56720;SDS011;53183;47.412;18.884;2022-11-21T07:33:40;19.70;;;10.85;;
56720;SDS011;53183;47.412;18.884;2022-11-21T07:36:10;23.30;;;10.13;;
56720;SDS011;53183;47.412;18.884;2022-11-21T07:38:38;18.40;;;10.15;;
56720;SDS011;53183;47.412;18.884;2022-11-21T07:41:07;22.05;;;10.75;;
56720;SDS011;53183;47.412;18.884;2022-11-21T07:43:35;22.13;;;11.12;;
56720;SDS011;53183;47.412;18.884;2022-11-21T07:46:02;23.30;;;11.27;;
56720;SDS011;53183;47.412;18.884;2022-11-21T07:48:29;20.48;;;10.93;;
56720;SDS011;53183;47.412;18.884;2022-11-21T07:50:56;21.00;;;11.52;;
56720;SDS011;53183;47.412;18.884;2022-11-21T07:53:23;24.30;;;11.95;;
56720;SDS011;53183;47.412;18.884;2022-11-21T07:55:50;22.95;;;11.55;;
56720;SDS011;53183;47.412;18.884;2022-11-21T07:58:18;24.70;;;13.18;;
56720;SDS011;53183;47.412;18.884;2022-11-21T08:00:45;32.53;;;14.43;;
56720;SDS011;53183;47.412;18.884;2022-11-21T08:03:12;26.30;;;12.37;;
56720;SDS011;53183;47.412;18.884;2022-11-21T08:05:40;26.50;;;13.85;;
56720;SDS011;53183;47.412;18.884;2022-11-21T08:08:09;37.08;;;15.65;;
56720;SDS011;53183;47.412;18.884;2022-11-21T08:10:41;23.10;;;12.70;;
56720;SDS011;53183;47.412;18.884;2022-11-21T08:13:10;20.42;;;11.52;;
56720;SDS011;53183;47.412;18.884;2022-11-21T08:15:38;23.05;;;9.82;;
56720;SDS011;53183;47.412;18.884;2022-11-21T08:18:06;18.95;;;10.90;;
56720;SDS011;53183;47.412;18.884;2022-11-21T08:20:37;18.12;;;9.90;;
56720;SDS011;53183;47.412;18.884;2022-11-21T08:23:05;13.18;;;7.53;;
56720;SDS011;53183;47.412;18.884;2022-11-21T08:25:33;14.60;;;6.55;;
56720;SDS011;53183;47.412;18.884;2022-11-21T08:28:06;16.75;;;8.05;;
56720;SDS011;53183;47.412;18.884;2022-11-21T08:30:35;16.77;;;9.05;;
56720;SDS011;53183;47.412;18.884;2022-11-21T08:33:03;11.30;;;6.95;;
56720;SDS011;53183;47.412;18.884;2022-11-21T08:35:30;14.13;;;6.97;;
56720;SDS011;53183;47.412;18.884;2022-11-21T08:37:58;13.60;;;7.40;;
56720;SDS011;53183;47.412;18.884;2022-11-21T08:40:27;13.60;;;7.28;;
56720;SDS011;53183;47.412;18.884;2022-11-21T08:42:59;13.07;;;7.15;;
56720;SDS011;53183;47.412;18.884;2022-11-21T08:45:31;14.90;;;6.60;;
56720;SDS011;53183;47.412;18.884;2022-11-21T08:48:00;11.80;;;6.75;;
56720;SDS011;53183;47.412;18.884;2022-11-21T08:50:28;12.70;;;7.62;;
56720;SDS011;53183;47.412;18.884;2022-11-21T08:52:59;11.60;;;7.05;;
56720;SDS011;53183;47.412;18.884;2022-11-21T08:55:28;12.15;;;7.05;;
56720;SDS011;53183;47.412;18.884;2022-11-21T08:57:56;17.00;;;8.32;;
56720;SDS011;53183;47.412;18.884;2022-11-21T09:00:24;16.73;;;8.15;;
56720;SDS011;53183;47.412;18.884;2022-11-21T09:02:51;19.08;;;7.53;;
56720;SDS011;53183;47.412;18.884;2022-11-21T09:05:19;18.62;;;8.18;;
56720;SDS011;53183;47.412;18.884;2022-11-21T09:07:46;15.82;;;7.28;;
56720;SDS011;53183;47.412;18.884;2022-11-21T09:10:14;17.02;;;8.93;;
56720;SDS011;53183;47.412;18.884;2022-11-21T09:12:42;16.00;;;8.23;;
56720;SDS011;53183;47.412;18.884;2022-11-21T09:15:09;17.05;;;8.73;;
56720;SDS011;53183;47.412;18.884;2022-11-21T09:17:59;17.92;;;8.70;;
56720;SDS011;53183;47.412;18.884;2022-11-21T09:20:31;30.10;;;9.73;;
56720;SDS011;53183;47.412;18.884;2022-11-21T09:23:06;22.02;;;11.02;;
56720;SDS011;53183;47.412;18.884;2022-11-21T09:25:34;20.50;;;10.52;;
56720;SDS011;53183;47.412;18.884;2022-11-21T09:28:02;21.52;;;10.27;;
56720;SDS011;53183;47.412;18.884;2022-11-21T09:30:31;20.98;;;9.25;;
56720;SDS011;53183;47.412;18.884;2022-11-21T09:33:06;22.33;;;11.68;;
56720;SDS011;53183;47.412;18.884;2022-11-21T09:35:35;23.75;;;11.05;;
56720;SDS011;53183;47.412;18.884;2022-11-21T09:38:03;15.93;;;8.07;;
56720;SDS011;53183;47.412;18.884;2022-11-21T09:40:32;17.12;;;8.18;;
56720;SDS011;53183;47.412;18.884;2022-11-21T09:43:20;21.23;;;10.52;;
56720;SDS011;53183;47.412;18.884;2022-11-21T09:46:12;21.27;;;9.82;;
56720;SDS011;53183;47.412;18.884;2022-11-21T09:48:47;20.62;;;8.73;;
56720;SDS011;53183;47.412;18.884;2022-11-21T09:51:21;17.42;;;7.75;;
56720;SDS011;53183;47.412;18.884;2022-11-21T09:56:23;19.33;;;9.38;;
56720;SDS011;53183;47.412;18.884;2022-11-21T10:01:43;17.73;;;8.02;;
56720;SDS011;53183;47.412;18.884;2022-11-21T10:04:10;14.85;;;7.95;;
56720;SDS011;53183;47.412;18.884;2022-11-21T10:07:24;12.02;;;6.97;;
56720;SDS011;53183;47.412;18.884;2022-11-21T10:12:45;17.17;;;8.18;;
56720;SDS011;53183;47.412;18.884;2022-11-21T10:25:55;14.00;;;7.97;;
56720;SDS011;53183;47.412;18.884;2022-11-21T10:28:39;21.37;;;8.73;;
56720;SDS011;53183;47.412;18.884;2022-11-21T10:31:14;21.08;;;10.20;;
56720;SDS011;53183;47.412;18.884;2022-11-21T10:33:41;17.95;;;8.95;;
56720;SDS011;53183;47.412;18.884;2022-11-21T10:36:20;18.40;;;8.40;;
56720;SDS011;53183;47.412;18.884;2022-11-21T10:38:54;15.75;;;8.40;;
56720;SDS011;53183;47.412;18.884;2022-11-21T10:44:26;18.25;;;9.48;;
56720;SDS011;53183;47.412;18.884;2022-11-21T10:47:20;15.48;;;8.90;;
56720;SDS011;53183;47.412;18.884;2022-11-21T10:55:22;17.75;;;10.18;;
56720;SDS011;53183;47.412;18.884;2022-11-21T10:57:49;16.30;;;9.20;;
56720;SDS011;53183;47.412;18.884;2022-11-21T11:05:24;15.93;;;8.57;;
56720;SDS011;53183;47.412;18.884;2022-11-21T11:10:42;14.20;;;8.35;;
56720;SDS011;53183;47.412;18.884;2022-11-21T11:13:12;16.80;;;9.20;;
56720;SDS011;53183;47.412;18.884;2022-11-21T11:16:16;29.35;;;10.52;;
56720;SDS011;53183;47.412;18.884;2022-11-21T11:21:29;39.92;;;15.95;;
56720;SDS011;53183;47.412;18.884;2022-11-21T11:24:19;28.00;;;12.50;;
56720;SDS011;53183;47.412;18.884;2022-11-21T11:29:19;29.30;;;12.65;;
56720;SDS011;53183;47.412;18.884;2022-11-21T11:32:00;27.75;;;13.45;;
56720;SDS011;53183;47.412;18.884;2022-11-21T11:48:53;38.45;;;19.08;;
56720;SDS011;53183;47.412;18.884;2022-11-21T11:51:50;32.15;;;16.27;;
56720;SDS011;53183;47.412;18.884;2022-11-21T11:54:22;34.53;;;17.23;;
56720;SDS011;53183;47.412;18.884;2022-11-21T11:56:54;32.97;;;16.77;;
56720;SDS011;53183;47.412;18.884;2022-11-21T11:59:37;31.23;;;18.95;;
56720;SDS011;53183;47.412;18.884;2022-11-21T12:02:28;33.92;;;17.70;;
56720;SDS011;53183;47.412;18.884;2022-11-21T12:05:20;31.12;;;16.30;;
56720;SDS011;53183;47.412;18.884;2022-11-21T12:08:04;31.53;;;16.83;;
56720;SDS011;53183;47.412;18.884;2022-11-21T12:14:21;25.48;;;12.82;;
56720;SDS011;53183;47.412;18.884;2022-11-21T12:17:24;20.35;;;11.20;;
56720;SDS011;53183;47.412;18.884;2022-11-21T12:19:58;20.17;;;10.75;;
56720;SDS011;53183;47.412;18.884;2022-11-21T12:22:28;21.98;;;11.38;;
56720;SDS011;53183;47.412;18.884;2022-11-21T12:24:55;20.58;;;11.25;;
56720;SDS011;53183;47.412;18.884;2022-11-21T12:27:31;21.75;;;11.25;;
56720;SDS011;53183;47.412;18.884;2022-11-21T12:38:12;21.45;;;12.57;;
56720;SDS011;53183;47.412;18.884;2022-11-21T12:54:08;21.37;;;11.32;;
56720;SDS011;53183;47.412;18.884;2022-11-21T12:57:09;20.15;;;11.18;;
56720;SDS011;53183;47.412;18.884;2022-11-21T13:05:39;20.02;;;9.02;;
56720;SDS011;53183;47.412;18.884;2022-11-21T13:08:13;18.15;;;7.93;;
56720;SDS011;53183;47.412;18.884;2022-11-21T13:14:50;17.85;;;9.48;;
56720;SDS011;53183;47.412;18.884;2022-11-21T13:22:52;16.90;;;7.30;;
56720;SDS011;53183;47.412;18.884;2022-11-21T13:49:58;14.05;;;7.80;;
56720;SDS011;53183;47.412;18.884;2022-11-21T14:03:50;22.83;;;10.50;;
56720;SDS011;53183;47.412;18.884;2022-11-21T14:06:41;23.87;;;10.18;;
56720;SDS011;53183;47.412;18.884;2022-11-21T14:17:01;16.73;;;9.48;;
56720;SDS011;53183;47.412;18.884;2022-11-21T14:19:30;15.23;;;7.97;;
56720;SDS011;53183;47.412;18.884;2022-11-21T14:22:00;18.08;;;10.00;;
56720;SDS011;53183;47.412;18.884;2022-11-21T14:24:27;23.20;;;10.90;;
56720;SDS011;53183;47.412;18.884;2022-11-21T14:26:55;18.83;;;10.48;;
56720;SDS011;53183;47.412;18.884;2022-11-21T14:29:37;17.58;;;10.75;;
56720;SDS011;53183;47.412;18.884;2022-11-21T14:32:12;27.23;;;13.45;;
56720;SDS011;53183;47.412;18.884;2022-11-21T14:37:10;22.87;;;11.15;;
56720;SDS011;53183;47.412;18.884;2022-11-21T14:39:39;24.63;;;12.75;;
56720;SDS011;53183;47.412;18.884;2022-11-21T14:42:11;22.15;;;10.98;;
56720;SDS011;53183;47.412;18.884;2022-11-21T14:44:41;17.45;;;10.25;;
56720;SDS011;53183;47.412;18.884;2022-11-21T14:47:12;23.23;;;11.05;;
56720;SDS011;53183;47.412;18.884;2022-11-21T14:49:49;19.67;;;10.40;;
56720;SDS011;53183;47.412;18.884;2022-11-21T14:52:27;21.60;;;11.00;;
56720;SDS011;53183;47.412;18.884;2022-11-21T14:55:01;21.33;;;9.73;;
56720;SDS011;53183;47.412;18.884;2022-11-21T14:57:50;14.45;;;7.87;;
56720;SDS011;53183;47.412;18.884;2022-11-21T15:00:19;17.98;;;9.20;;
56720;SDS011;53183;47.412;18.884;2022-11-21T15:03:19;19.45;;;9.82;;
56720;SDS011;53183;47.412;18.884;2022-11-21T15:05:48;21.98;;;11.48;;
56720;SDS011;53183;47.412;18.884;2022-11-21T15:08:31;21.87;;;11.63;;
56720;SDS011;53183;47.412;18.884;2022-11-21T15:11:21;24.58;;;10.05;;
56720;SDS011;53183;47.412;18.884;2022-11-21T15:13:53;15.57;;;9.35;;
56720;SDS011;53183;47.412;18.884;2022-11-21T15:16:46;18.98;;;9.25;;
56720;SDS011;53183;47.412;18.884;2022-11-21T15:19:20;16.77;;;9.32;;
56720;SDS011;53183;47.412;18.884;2022-11-21T15:21:57;15.25;;;9.20;;
56720;SDS011;53183;47.412;18.884;2022-11-21T15:24:31;19.17;;;9.77;;
56720;SDS011;53183;47.412;18.884;2022-11-21T15:30:06;26.02;;;13.07;;
56720;SDS011;53183;47.412;18.884;2022-11-21T15:35:43;20.23;;;11.98;;
56720;SDS011;53183;47.412;18.884;2022-11-21T15:43:47;21.70;;;10.52;;
56720;SDS011;53183;47.412;18.884;2022-11-21T15:46:20;25.40;;;11.45;;
56720;SDS011;53183;47.412;18.884;2022-11-21T15:49:01;19.50;;;10.45;;
56720;SDS011;53183;47.412;18.884;2022-11-21T15:51:51;20.73;;;11.73;;
56720;SDS011;53183;47.412;18.884;2022-11-21T15:54:36;19.55;;;10.55;;
56720;SDS011;53183;47.412;18.884;2022-11-21T15:57:03;19.80;;;10.00;;
56720;SDS011;53183;47.412;18.884;2022-11-21T15:59:30;23.25;;;11.65;;
56720;SDS011;53183;47.412;18.884;2022-11-21T16:01:58;21.92;;;11.45;;
56720;SDS011;53183;47.412;18.884;2022-11-21T16:04:26;22.52;;;11.15;;
56720;SDS011;53183;47.412;18.884;2022-11-21T16:06:53;21.92;;;11.00;;
56720;SDS011;53183;47.412;18.884;2022-11-21T16:09:20;25.20;;;11.80;;
56720;SDS011;53183;47.412;18.884;2022-11-21T16:11:48;18.55;;;10.63;;
56720;SDS011;53183;47.412;18.884;2022-11-21T16:14:15;17.80;;;10.05;;
56720;SDS011;53183;47.412;18.884;2022-11-21T16:16:44;22.23;;;11.68;;
56720;SDS011;53183;47.412;18.884;2022-11-21T16:19:13;21.55;;;10.55;;
56720;SDS011;53183;47.412;18.884;2022-11-21T16:21:41;22.17;;;11.15;;
56720;SDS011;53183;47.412;18.884;2022-11-21T16:24:08;46.33;;;24.87;;
56720;SDS011;53183;47.412;18.884;2022-11-21T16:26:35;37.80;;;20.58;;
56720;SDS011;53183;47.412;18.884;2022-11-21T16:29:03;32.33;;;16.67;;
56720;SDS011;53183;47.412;18.884;2022-11-21T16:31:32;25.12;;;14.55;;
56720;SDS011;53183;47.412;18.884;2022-11-21T16:34:00;35.20;;;16.15;;
56720;SDS011;53183;47.412;18.884;2022-11-21T16:36:27;32.35;;;17.23;;
56720;SDS011;53183;47.412;18.884;2022-11-21T16:38:56;38.75;;;19.17;;
56720;SDS011;53183;47.412;18.884;2022-11-21T16:41:31;36.53;;;17.50;;
56720;SDS011;53183;47.412;18.884;2022-11-21T16:43:58;38.00;;;17.23;;
56720;SDS011;53183;47.412;18.884;2022-11-21T16:46:25;34.53;;;17.70;;
56720;SDS011;53183;47.412;18.884;2022-11-21T16:48:56;32.50;;;17.30;;
56720;SDS011;53183;47.412;18.884;2022-11-21T16:51:26;33.58;;;16.05;;
56720;SDS011;53183;47.412;18.884;2022-11-21T16:53:53;29.20;;;15.02;;
56720;SDS011;53183;47.412;18.884;2022-11-21T16:56:22;32.90;;;15.63;;
56720;SDS011;53183;47.412;18.884;2022-11-21T16:58:50;32.40;;;16.27;;
56720;SDS011;53183;47.412;18.884;2022-11-21T17:01:18;35.45;;;16.92;;
56720;SDS011;53183;47.412;18.884;2022-11-21T17:03:49;33.50;;;15.77;;
56720;SDS011;53183;47.412;18.884;2022-11-21T17:06:18;37.95;;;19.27;;
56720;SDS011;53183;47.412;18.884;2022-11-21T17:08:50;38.75;;;20.05;;
56720;SDS011;53183;47.412;18.884;2022-11-21T17:11:21;49.03;;;23.50;;
56720;SDS011;53183;47.412;18.884;2022-11-21T17:13:52;43.67;;;21.83;;
56720;SDS011;53183;47.412;18.884;2022-11-21T17:16:20;35.90;;;17.67;;
56720;SDS011;53183;47.412;18.884;2022-11-21T17:18:55;35.95;;;18.80;;
56720;SDS011;53183;47.412;18.884;2022-11-21T17:21:24;29.35;;;14.98;;